METAR Data
IDs: Format: Raw Decoded Include TAF

Data at: 2304 UTC 29 May 2020

PGUM 292300Z 06010KT 4SM -RA BKN012 BKN027 BKN080 27/24 A2999 RMK AO2 RAB2256 P0000 T02670239